Kezdőlap
METAR-TAF:

METAR-TAF

Repülőterek :

Gifu, Japán

földrajzi szélesség: 35-23N, földrajzi hosszúság: 136-52E, magasság: 39 m

Jelenlegi meteorológiai megfigyelések

A jelentés 44 perccel ezelõtt készült, 20:22 UTC
Északkeleti szél 3 kt
Hőmérséklet 22°C
Páratartalom 88%
Légköri nyomás 1005 hPa
Látótávolság 10 km, vagy több
Kevés felhő 1500 lábon
Szakadozott felhőzet 3000 lábon
Szakadozott felhőzet 23000 lábon

METAR: RJNG 122022Z 04003KT 9999 FEW015 BKN030 BKN230 22/20 Q1005 RMK 1CU015 5CU030 A2969

Idő: 06:06 (21:06 UTC)


TAF: hiányzik

Meteorológiai megfigyelések és előrejelzések több, mint 4000 repülőtéren (METAR és TAF jelentéseket).

A térképen piros és sárga pontok jelzik az elérhető meteorológiai állomásokat.

Mozgassa az egeret a pont fölött, hogy megjelenjen az állomás neve.

Azután kattintson az időjárási megfigyelések és előrejelzések megtekintéséhez.

A térkép megváltoztatása: kattintson a fekete keresztel jelölt zöld gombra ráközelítéshez, a vonallal jelölt zöld gombra távolításhoz, vagy a zöld nyilakra a szomszédos térképek eléréséhez.


METAR-TAF: